Ana Sayfa
METAR-TAF:

METAR-TAF

Havaalanları :

Mazatlán, Meksika

Enlem: 23-10N, Boylam: 106-16W, yükseklik: 10 m

Güncel hava durumu gözlemi

Rapor saat 04:43 UTC de 1 saat ve 28 dakika önce yapıldı.
Sakin rüzgar
Sıcaklık 17°C
Nem 88%
Basınç 1016 hPa
Görüş mesafesi: 16.1 km
Açık gökyüzü

METAR: MMMZ 280443Z 00000KT 10SM SKC 17/15 A3000

Saat: 23:11 (06:11 UTC)

Tahmin

Rapor saat 05:16 UTC de 55 dakika önce yapıldı.
Ayın 28'si saat 06 UTC'den ayın 29'si saat 12 UTC'ye kadar geçerli Tahmin
Rüzgar kuzey/kuzeydoğudan 5 kt
Görüş mesafesi: 10 km
Açık gökyüzü
Ayın 28'si saat 1600 UTC'den
Rüzgar güneybatıdan 10 kt
Görüş mesafesi: 10 km
Açık gökyüzü
Ayın 29'si saat 0200 UTC'den
Rüzgar kuzey/kuzeydoğudan 5 kt
Görüş mesafesi: 10 km
Açık gökyüzü

TAF: MMMZ 280516Z 2806/2912 03005KT P6SM SKC TX27/2820Z TN15/2812Z FM281600 23010KT P6SM SKC FM290200 03005KT P6SM SKC

4.000'den fazla havaalanı için hava durumu gözlemleri ve tahminleri (METAR ve TAF raporları).

Kullanılabilir istasyonlar harita üzerinde sarı ve kırmızı noktalarla gösterilir.

İstasyonun adını görmek için fareyi noktanın üzerinde gezdirin.

Sonrasında hava gözlem ve tahminlerini görmek için tıklayın.

Haritayı değiştirmek için: yaklaştırmak için siyah artı işaretli yeşil düğmeye ve uzaklaştırmak için de eksi işaretli düğmeye hızla tıklayın; bitişik haritalar için yeşil okları kullanın.


METAR-TAF: